createdAt,value
2023-01-13T00:01:24.004Z,18.02
2023-01-13T00:03:52.664Z,21.42
2023-01-13T00:06:26.098Z,22.10
2023-01-13T00:08:55.177Z,20.08
2023-01-13T00:11:24.653Z,20.33
2023-01-13T00:13:52.973Z,19.17
2023-01-13T00:16:22.184Z,19.83
2023-01-13T00:18:51.855Z,20.70
2023-01-13T00:21:23.632Z,18.77
2023-01-13T00:23:54.154Z,18.92
2023-01-13T00:26:23.977Z,19.70
2023-01-13T00:28:52.489Z,19.65
2023-01-13T00:31:22.377Z,21.30
2023-01-13T00:33:51.349Z,22.13
2023-01-13T00:36:22.285Z,20.00
2023-01-13T00:38:50.730Z,23.70
2023-01-13T00:41:21.256Z,21.85
2023-01-13T00:43:49.574Z,21.20
2023-01-13T00:46:20.494Z,20.88
2023-01-13T00:48:49.897Z,19.58
2023-01-13T00:51:20.422Z,18.70
2023-01-13T00:53:51.468Z,21.00
2023-01-13T00:56:38.543Z,17.80
2023-01-13T00:59:08.336Z,20.95
2023-01-13T01:01:36.733Z,19.90
2023-01-13T01:04:05.140Z,18.75
2023-01-13T01:06:33.387Z,23.55
2023-01-13T01:09:03.047Z,20.95
2023-01-13T01:11:33.042Z,22.35
2023-01-13T01:14:04.174Z,21.33
2023-01-13T01:16:34.381Z,21.77
2023-01-13T01:19:03.895Z,22.92
2023-01-13T01:21:33.074Z,22.27
2023-01-13T01:24:04.873Z,22.83
2023-01-13T01:26:33.394Z,24.80
2023-01-13T01:29:02.734Z,23.20
2023-01-13T01:31:32.774Z,22.60
2023-01-13T01:34:02.337Z,22.65
2023-01-13T01:36:31.272Z,22.63
2023-01-13T01:39:00.835Z,23.42
2023-01-13T01:41:33.237Z,22.50
2023-01-13T01:44:07.402Z,22.73
2023-01-13T01:46:38.173Z,22.88
2023-01-13T01:49:15.321Z,21.88
2023-01-13T01:51:47.657Z,19.40
2023-01-13T01:54:21.353Z,21.48
2023-01-13T01:56:51.553Z,24.55
2023-01-13T01:59:20.105Z,21.65
2023-01-13T02:01:49.773Z,20.05
2023-01-13T02:04:21.928Z,19.63
2023-01-13T02:06:51.419Z,21.40
2023-01-13T02:09:19.733Z,22.60
2023-01-13T02:12:05.366Z,22.08
2023-01-13T02:14:36.492Z,22.52
2023-01-13T02:17:20.371Z,19.98
2023-01-13T02:20:18.842Z,19.42
2023-01-13T02:23:34.923Z,21.80
2023-01-13T02:26:31.851Z,22.25
2023-01-13T02:29:31.338Z,22.13
2023-01-13T02:32:08.825Z,25.48
2023-01-13T02:34:41.841Z,22.55
2023-01-13T02:37:18.455Z,23.42
2023-01-13T02:39:53.688Z,24.52
2023-01-13T02:42:45.874Z,23.10
2023-01-13T02:45:18.958Z,21.55
2023-01-13T02:47:50.968Z,20.23
2023-01-13T02:50:23.574Z,24.33
2023-01-13T02:52:56.260Z,24.67
2023-01-13T02:57:59.722Z,20.27
2023-01-13T03:00:29.518Z,22.85
2023-01-13T03:02:59.309Z,24.83
2023-01-13T03:05:27.602Z,25.13
2023-01-13T03:08:10.794Z,24.92
2023-01-13T03:10:52.030Z,22.83
2023-01-13T03:13:34.695Z,24.83
2023-01-13T03:16:14.625Z,23.80
2023-01-13T03:18:51.790Z,24.23
2023-01-13T03:21:26.874Z,21.92
2023-01-13T03:24:02.325Z,21.35
2023-01-13T03:26:42.393Z,22.40
2023-01-13T03:29:18.450Z,23.38
2023-01-13T03:31:54.998Z,23.08
2023-01-13T03:34:30.289Z,19.67
2023-01-13T03:37:00.837Z,21.30
2023-01-13T03:39:33.491Z,19.08
2023-01-13T03:42:06.924Z,21.63
2023-01-13T03:44:38.390Z,23.50
2023-01-13T03:47:14.496Z,21.08
2023-01-13T03:49:51.033Z,19.42
2023-01-13T03:52:23.869Z,20.27
2023-01-13T03:54:56.867Z,18.70
2023-01-13T03:57:31.043Z,20.77
2023-01-13T04:00:04.093Z,19.23
2023-01-13T04:02:44.954Z,21.55
2023-01-13T04:05:15.657Z,18.95
2023-01-13T04:07:51.384Z,22.13
2023-01-13T04:10:25.035Z,19.63
2023-01-13T04:13:05.278Z,21.20
2023-01-13T04:15:37.713Z,21.33
2023-01-13T04:18:18.855Z,22.17
2023-01-13T04:20:50.747Z,21.05
2023-01-13T04:23:20.074Z,20.57
2023-01-13T04:25:49.026Z,23.30
2023-01-13T04:28:17.338Z,20.40
2023-01-13T04:30:46.409Z,20.50
2023-01-13T04:33:15.538Z,21.60
2023-01-13T04:35:45.018Z,19.88
2023-01-13T04:38:16.048Z,20.95
2023-01-13T04:40:44.409Z,18.60
2023-01-13T04:43:12.785Z,19.83
2023-01-13T04:45:40.907Z,18.27
2023-01-13T04:48:09.256Z,23.30
2023-01-13T04:50:37.542Z,22.20
2023-01-13T04:53:05.873Z,22.77
2023-01-13T04:55:35.460Z,24.52
2023-01-13T04:58:04.839Z,23.88
2023-01-13T05:00:33.046Z,21.02
2023-01-13T05:03:01.591Z,19.08
2023-01-13T05:05:31.010Z,20.00
2023-01-13T05:07:59.449Z,21.08
2023-01-13T05:10:28.095Z,19.90
2023-01-13T05:13:14.876Z,20.95
2023-01-13T05:16:01.510Z,20.95
2023-01-13T05:18:32.072Z,20.88
2023-01-13T05:21:00.255Z,21.20
2023-01-13T05:23:46.577Z,18.67
2023-01-13T05:26:14.853Z,21.08
2023-01-13T05:28:44.404Z,20.65
2023-01-13T05:31:15.023Z,19.98
2023-01-13T05:33:43.228Z,19.00
2023-01-13T05:36:11.550Z,20.58
2023-01-13T05:38:39.720Z,20.55
2023-01-13T05:41:25.095Z,20.52
2023-01-13T05:43:54.624Z,23.35
2023-01-13T05:46:22.888Z,24.02
2023-01-13T05:48:51.021Z,22.95
2023-01-13T05:51:19.831Z,21.55
2023-01-13T05:53:47.993Z,22.55
2023-01-13T05:56:18.118Z,20.58
2023-01-13T05:58:46.272Z,19.35
2023-01-13T06:01:15.820Z,17.30
2023-01-13T06:03:43.965Z,19.92
2023-01-13T06:06:12.107Z,20.05
2023-01-13T06:08:40.288Z,17.48
2023-01-13T06:11:08.970Z,18.60
2023-01-13T06:13:37.162Z,19.67
2023-01-13T06:16:05.696Z,21.63
2023-01-13T06:18:35.241Z,19.90
2023-01-13T06:21:03.441Z,22.00
2023-01-13T06:23:35.156Z,20.33
2023-01-13T06:26:09.707Z,21.05
2023-01-13T06:28:37.847Z,18.88
2023-01-13T06:31:08.748Z,20.08
2023-01-13T06:33:40.396Z,18.40
2023-01-13T06:36:13.853Z,19.30
2023-01-13T06:38:46.552Z,21.67
2023-01-13T06:41:15.255Z,21.52
2023-01-13T06:43:42.418Z,20.13
2023-01-13T06:46:10.520Z,18.95
2023-01-13T06:48:40.290Z,22.10
2023-01-13T06:51:08.445Z,19.42
2023-01-13T06:53:36.618Z,20.27
2023-01-13T06:56:04.930Z,21.95
2023-01-13T06:58:33.046Z,21.02
2023-01-13T07:01:02.813Z,22.58
2023-01-13T07:03:31.269Z,22.63
2023-01-13T07:06:02.326Z,25.30
2023-01-13T07:08:30.516Z,24.70
2023-01-13T07:11:01.582Z,25.65
2023-01-13T07:13:47.327Z,26.58
2023-01-13T07:16:15.554Z,26.27
2023-01-13T07:18:43.685Z,26.52
2023-01-13T07:21:13.822Z,28.27
2023-01-13T07:23:43.020Z,25.83
2023-01-13T07:26:12.398Z,22.08
2023-01-13T07:28:41.219Z,24.02
2023-01-13T07:31:16.301Z,24.55
2023-01-13T07:33:44.891Z,24.98
2023-01-13T07:36:15.322Z,23.77
2023-01-13T07:38:44.656Z,24.45
2023-01-13T07:41:33.093Z,22.50
2023-01-13T07:44:05.031Z,23.63
2023-01-13T07:46:33.580Z,22.45
2023-01-13T07:49:01.693Z,23.00
2023-01-13T07:51:31.907Z,20.20
2023-01-13T07:54:00.106Z,20.70
2023-01-13T07:56:28.258Z,21.88
2023-01-13T07:58:56.390Z,19.52
2023-01-13T08:01:24.651Z,20.27
2023-01-13T08:03:52.804Z,20.60
2023-01-13T08:06:21.025Z,21.40
2023-01-13T08:08:50.874Z,21.63
2023-01-13T08:11:19.604Z,20.73
2023-01-13T08:13:48.919Z,18.90
2023-01-13T08:16:17.394Z,19.17
2023-01-13T08:18:45.570Z,19.50
2023-01-13T08:21:15.780Z,19.10
2023-01-13T08:23:45.349Z,19.95
2023-01-13T08:26:17.373Z,21.58
2023-01-13T08:28:46.105Z,20.95
2023-01-13T08:31:17.103Z,20.25
2023-01-13T08:33:45.820Z,20.48
2023-01-13T08:36:14.546Z,20.77
2023-01-13T08:38:42.920Z,19.73
2023-01-13T08:41:12.151Z,17.80
2023-01-13T08:43:41.706Z,16.85
2023-01-13T08:46:09.957Z,18.17
2023-01-13T08:48:38.186Z,16.90
2023-01-13T08:51:08.977Z,16.35
2023-01-13T08:53:37.470Z,16.00
2023-01-13T08:56:11.060Z,17.05
2023-01-13T08:58:39.203Z,16.92
2023-01-13T09:01:10.277Z,16.88
2023-01-13T09:03:39.264Z,16.05
2023-01-13T09:06:07.701Z,16.80
2023-01-13T09:08:35.993Z,16.30
2023-01-13T09:11:24.578Z,16.40
2023-01-13T09:13:52.056Z,15.57
2023-01-13T09:16:22.024Z,16.25
2023-01-13T09:18:50.139Z,16.23
2023-01-13T09:21:20.034Z,17.33
2023-01-13T09:23:48.273Z,16.92
2023-01-13T09:26:19.594Z,17.95
2023-01-13T09:28:47.726Z,16.63
2023-01-13T09:31:16.022Z,17.90
2023-01-13T09:34:02.748Z,17.33
2023-01-13T09:36:30.912Z,17.25
2023-01-13T09:38:59.331Z,18.52
2023-01-13T09:41:44.270Z,18.85
2023-01-13T09:44:18.068Z,19.35
2023-01-13T09:46:52.569Z,17.55
2023-01-13T09:49:24.982Z,17.65
2023-01-13T09:52:00.040Z,16.42
2023-01-13T09:54:35.171Z,22.05
2023-01-13T09:57:03.952Z,21.73
2023-01-13T09:59:36.582Z,18.60
2023-01-13T10:02:18.311Z,19.10
2023-01-13T10:05:03.843Z,17.67
2023-01-13T10:07:35.346Z,18.67
2023-01-13T10:10:09.344Z,17.85
2023-01-13T10:12:55.186Z,18.58
2023-01-13T10:15:25.999Z,18.60
2023-01-13T10:18:01.102Z,18.63
2023-01-13T10:20:40.191Z,17.85
2023-01-13T10:23:25.691Z,18.77
2023-01-13T10:26:05.323Z,19.55
2023-01-13T10:28:33.491Z,19.17
2023-01-13T10:31:03.585Z,17.55
2023-01-13T10:33:31.875Z,18.95
2023-01-13T10:36:03.164Z,18.55
2023-01-13T10:38:59.720Z,18.92
2023-01-13T10:41:29.280Z,16.92
2023-01-13T10:44:03.685Z,18.98
2023-01-13T10:46:33.498Z,18.50
2023-01-13T10:49:03.565Z,17.58
2023-01-13T10:51:44.923Z,18.40
2023-01-13T10:54:22.483Z,17.58
2023-01-13T10:56:51.487Z,19.27
2023-01-13T10:59:24.216Z,18.60
2023-01-13T11:04:31.744Z,16.63
2023-01-13T11:07:04.093Z,19.45
2023-01-13T11:09:33.796Z,15.82
2023-01-13T11:12:03.198Z,17.50
2023-01-13T11:14:39.836Z,17.70
2023-01-13T11:17:17.603Z,17.13
2023-01-13T11:19:51.865Z,19.45
2023-01-13T11:22:29.704Z,18.25
2023-01-13T11:25:02.637Z,20.67
2023-01-13T11:27:42.742Z,20.30
2023-01-13T11:30:32.847Z,20.05
2023-01-13T11:33:22.274Z,19.60
2023-01-13T11:35:59.765Z,18.90
2023-01-13T11:38:35.089Z,21.65
2023-01-13T11:41:12.176Z,20.65
2023-01-13T11:43:47.942Z,20.00
2023-01-13T11:46:16.134Z,21.52
2023-01-13T11:48:44.767Z,21.73
2023-01-13T11:51:29.759Z,21.05
2023-01-13T11:54:22.701Z,21.40
2023-01-13T11:57:24.356Z,20.48
2023-01-13T12:00:19.027Z,21.42
2023-01-13T12:02:57.103Z,22.38
2023-01-13T12:05:35.188Z,21.42
2023-01-13T12:08:19.855Z,22.38
2023-01-13T12:11:02.673Z,21.75
2023-01-13T12:13:41.581Z,22.05
2023-01-13T12:16:23.800Z,22.98
2023-01-13T12:19:21.427Z,22.70
2023-01-13T12:22:04.875Z,22.23
2023-01-13T12:24:39.482Z,23.17
2023-01-13T12:27:18.174Z,23.00
2023-01-13T12:29:50.333Z,24.33
2023-01-13T12:32:22.049Z,24.65
2023-01-13T12:35:05.314Z,24.65
2023-01-13T12:37:38.801Z,23.58
2023-01-13T12:40:22.450Z,23.83
2023-01-13T12:43:17.873Z,24.33
2023-01-13T12:45:46.067Z,25.05
2023-01-13T12:48:49.393Z,27.30
2023-01-13T12:51:24.760Z,24.35
2023-01-13T12:53:53.288Z,24.20
2023-01-13T12:56:42.218Z,26.63
2023-01-13T12:59:50.714Z,25.33
2023-01-13T13:02:34.877Z,27.60
2023-01-13T13:05:40.283Z,28.88
2023-01-13T13:08:23.954Z,28.30
2023-01-13T13:11:07.943Z,28.98
2023-01-13T13:13:44.667Z,28.60
2023-01-13T13:16:46.417Z,30.10
2023-01-13T13:19:45.964Z,29.48
2023-01-13T13:22:39.815Z,27.73
2023-01-13T13:25:27.430Z,29.52
2023-01-13T13:28:18.977Z,30.02
2023-01-13T13:31:05.626Z,28.33
2023-01-13T13:33:51.290Z,27.00
2023-01-13T13:36:42.837Z,26.55
2023-01-13T13:39:48.243Z,27.10
2023-01-13T13:42:38.217Z,28.00
2023-01-13T13:45:34.410Z,25.42
2023-01-13T13:48:20.083Z,26.20
2023-01-13T13:50:51.008Z,27.13
2023-01-13T13:53:21.286Z,25.55
2023-01-13T13:55:59.669Z,25.70
2023-01-13T13:58:29.970Z,24.08
2023-01-13T14:00:59.490Z,26.13
2023-01-13T14:03:31.512Z,23.90
2023-01-13T14:06:02.863Z,25.42
2023-01-13T14:08:51.248Z,25.42
2023-01-13T14:11:27.738Z,24.08
2023-01-13T14:14:03.751Z,25.40
2023-01-13T14:16:33.449Z,25.85
2023-01-13T14:19:02.452Z,24.55
2023-01-13T14:21:32.848Z,23.50
2023-01-13T14:24:10.843Z,21.83
2023-01-13T14:26:39.434Z,21.85
2023-01-13T14:29:07.926Z,23.13
2023-01-13T14:31:36.342Z,23.25
2023-01-13T14:34:31.301Z,23.85
2023-01-13T14:36:57.905Z,23.77
2023-01-13T14:39:33.330Z,22.92
2023-01-13T14:42:01.830Z,22.00
2023-01-13T14:44:32.096Z,21.92
2023-01-13T14:47:02.373Z,22.55
2023-01-13T14:49:36.254Z,22.45
2023-01-13T14:52:16.202Z,21.70
2023-01-13T14:54:49.612Z,22.88
2023-01-13T14:57:25.799Z,23.55
2023-01-13T15:00:06.442Z,22.42
2023-01-13T15:03:01.984Z,21.67
2023-01-13T15:05:42.852Z,20.00
2023-01-13T15:08:42.600Z,20.08
2023-01-13T15:11:25.067Z,19.45
2023-01-13T15:14:01.334Z,20.40
2023-01-13T15:16:33.877Z,20.80
2023-01-13T15:19:03.459Z,20.40
2023-01-13T15:21:31.609Z,20.98
2023-01-13T15:24:01.246Z,22.30
2023-01-13T15:26:31.541Z,22.73
2023-01-13T15:29:01.754Z,22.73
2023-01-13T15:31:30.551Z,24.77
2023-01-13T15:34:00.836Z,24.60
2023-01-13T15:36:31.252Z,25.65
2023-01-13T15:39:02.103Z,24.90
2023-01-13T15:41:59.414Z,25.20
2023-01-13T15:44:44.888Z,23.80
2023-01-13T15:47:14.624Z,23.42
2023-01-13T15:49:45.413Z,25.63
2023-01-13T15:52:21.563Z,25.00
2023-01-13T15:54:51.915Z,22.88
2023-01-13T15:57:24.261Z,23.02
2023-01-13T15:59:54.390Z,23.65
2023-01-13T16:02:23.658Z,23.75
2023-01-13T16:04:54.009Z,24.92
2023-01-13T16:07:23.674Z,24.90
2023-01-13T16:09:54.104Z,24.90
2023-01-13T16:12:22.556Z,24.02
2023-01-13T16:14:50.877Z,26.00
2023-01-13T16:17:20.972Z,23.30
2023-01-13T16:19:49.686Z,24.85
2023-01-13T16:22:18.954Z,22.10
2023-01-13T16:24:48.356Z,23.25
2023-01-13T16:27:20.224Z,24.02
2023-01-13T16:29:49.554Z,23.20
2023-01-13T16:32:18.349Z,24.75
2023-01-13T16:34:46.922Z,24.13
2023-01-13T16:37:21.468Z,22.88
2023-01-13T16:39:49.947Z,24.63
2023-01-13T16:42:19.713Z,23.23
2023-01-13T16:44:48.510Z,23.02
2023-01-13T16:47:18.478Z,24.00
2023-01-13T16:49:47.165Z,23.30
2023-01-13T16:52:15.627Z,23.10
2023-01-13T16:54:43.825Z,23.90
2023-01-13T16:57:14.257Z,24.20
2023-01-13T16:59:43.891Z,23.52
2023-01-13T17:02:14.843Z,23.40
2023-01-13T17:04:43.607Z,23.65
2023-01-13T17:07:18.083Z,23.60
2023-01-13T17:09:46.357Z,21.50
2023-01-13T17:12:14.597Z,24.15
2023-01-13T17:14:45.087Z,23.58
2023-01-13T17:17:23.397Z,22.63
2023-01-13T17:19:52.799Z,22.85
2023-01-13T17:22:21.843Z,23.50
2023-01-13T17:24:49.998Z,23.75
2023-01-13T17:27:18.911Z,23.52
2023-01-13T17:29:49.243Z,21.17
2023-01-13T17:32:19.230Z,24.75
2023-01-13T17:34:47.406Z,23.25
2023-01-13T17:37:15.836Z,25.83
2023-01-13T17:39:46.554Z,24.38
2023-01-13T17:42:15.668Z,25.23
2023-01-13T17:44:44.266Z,23.10
2023-01-13T17:47:14.043Z,24.05
2023-01-13T17:49:42.614Z,25.20
2023-01-13T17:52:11.143Z,26.55
2023-01-13T17:54:43.174Z,26.13
2023-01-13T17:57:11.711Z,24.80
2023-01-13T17:59:41.868Z,24.55
2023-01-13T18:02:14.362Z,26.38
2023-01-13T18:04:43.032Z,24.65
2023-01-13T18:07:17.209Z,25.27
2023-01-13T18:09:45.878Z,25.92
2023-01-13T18:12:14.677Z,25.30
2023-01-13T18:14:42.818Z,25.85
2023-01-13T18:17:11.724Z,25.23
2023-01-13T18:19:59.240Z,25.95
2023-01-13T18:22:45.279Z,24.80
2023-01-13T18:25:31.247Z,23.23
2023-01-13T18:28:01.339Z,22.67
2023-01-13T18:30:29.519Z,23.17
2023-01-13T18:32:58.233Z,22.90
2023-01-13T18:35:28.346Z,20.85
2023-01-13T18:37:57.159Z,22.38
2023-01-13T18:40:25.735Z,21.08
2023-01-13T18:42:54.497Z,23.08
2023-01-13T18:45:25.090Z,23.52
2023-01-13T18:47:54.400Z,22.80
2023-01-13T18:50:23.296Z,22.90
2023-01-13T18:52:53.516Z,24.05
2023-01-13T18:55:23.501Z,22.42
2023-01-13T18:57:53.307Z,24.42
2023-01-13T19:00:24.329Z,23.02
2023-01-13T19:05:35.925Z,24.67
2023-01-13T19:08:06.965Z,24.05
2023-01-13T19:10:37.000Z,24.13
2023-01-13T19:13:05.303Z,24.13
2023-01-13T19:15:34.003Z,21.83
2023-01-13T19:18:02.178Z,23.10
2023-01-13T19:20:30.392Z,24.55
2023-01-13T19:22:59.207Z,24.95
2023-01-13T19:25:29.639Z,22.10
2023-01-13T19:27:58.688Z,25.13
2023-01-13T19:30:29.545Z,22.45
2023-01-13T19:32:57.893Z,24.52
2023-01-13T19:35:27.210Z,24.35
2023-01-13T19:37:56.532Z,25.23
2023-01-13T19:40:25.744Z,26.25
2023-01-13T19:43:13.258Z,26.17
2023-01-13T19:45:41.808Z,24.65
2023-01-13T19:48:16.377Z,26.02
2023-01-13T19:50:45.461Z,25.27
2023-01-13T19:53:18.602Z,24.70
2023-01-13T19:55:48.817Z,26.98
2023-01-13T19:58:20.729Z,25.33
2023-01-13T20:00:53.274Z,24.77
2023-01-13T20:03:25.673Z,27.55
2023-01-13T20:05:55.562Z,26.37
2023-01-13T20:08:24.802Z,27.67
2023-01-13T20:11:14.276Z,25.02
2023-01-13T20:13:43.955Z,25.17
2023-01-13T20:16:13.066Z,26.35
2023-01-13T20:18:42.448Z,24.45
2023-01-13T20:21:11.573Z,23.40
2023-01-13T20:23:40.880Z,26.00
2023-01-13T20:26:09.791Z,27.17
2023-01-13T20:28:39.773Z,26.52
2023-01-13T20:31:12.400Z,26.20
2023-01-13T20:36:17.131Z,24.88
2023-01-13T20:38:46.371Z,24.33
2023-01-13T20:41:32.174Z,25.25
2023-01-13T20:44:01.349Z,25.55
2023-01-13T20:46:31.397Z,24.80
2023-01-13T20:48:59.934Z,25.67
2023-01-13T20:51:32.194Z,22.85
2023-01-13T20:54:00.809Z,26.60
2023-01-13T20:56:29.843Z,26.48
2023-01-13T20:58:58.981Z,27.27
2023-01-13T21:01:28.504Z,25.27
2023-01-13T21:03:59.381Z,23.05
2023-01-13T21:06:28.326Z,27.40
2023-01-13T21:08:58.059Z,27.83
2023-01-13T21:11:54.260Z,27.63
2023-01-13T21:14:41.788Z,28.08
2023-01-13T21:17:33.511Z,29.50
2023-01-13T21:20:04.316Z,24.80
2023-01-13T21:22:32.765Z,28.30
2023-01-13T21:25:02.549Z,29.77
2023-01-13T21:27:31.131Z,27.33
2023-01-13T21:29:59.548Z,29.63
2023-01-13T21:32:27.758Z,30.60
2023-01-13T21:34:56.140Z,33.30
2023-01-13T21:37:25.760Z,31.35
2023-01-13T21:39:54.190Z,30.65
2023-01-13T21:42:42.772Z,30.63
2023-01-13T21:45:29.640Z,30.55
2023-01-13T21:47:58.274Z,37.60
2023-01-13T21:50:28.497Z,34.40
2023-01-13T21:53:02.176Z,33.88
2023-01-13T21:55:32.498Z,33.40
2023-01-13T21:58:02.376Z,35.75
2023-01-13T22:00:33.197Z,32.90
2023-01-13T22:03:04.339Z,32.97
2023-01-13T22:05:33.330Z,33.22
2023-01-13T22:08:02.926Z,33.78
2023-01-13T22:10:32.073Z,33.72
2023-01-13T22:13:21.578Z,31.38
2023-01-13T22:15:49.733Z,32.53
2023-01-13T22:18:18.437Z,35.08
2023-01-13T22:20:46.777Z,38.25
2023-01-13T22:23:16.356Z,40.60
2023-01-13T22:25:44.504Z,36.35
2023-01-13T22:28:14.021Z,34.85
2023-01-13T22:30:42.593Z,38.97
2023-01-13T22:33:10.972Z,36.80
2023-01-13T22:35:39.089Z,37.20
2023-01-13T22:38:07.206Z,34.70
2023-01-13T22:40:36.743Z,36.80
2023-01-13T22:43:04.829Z,35.53
2023-01-13T22:45:33.004Z,39.88
2023-01-13T22:48:01.170Z,37.35
2023-01-13T22:50:29.682Z,36.28
2023-01-13T22:52:59.377Z,38.70
2023-01-13T22:55:27.853Z,36.13
2023-01-13T22:57:57.442Z,40.45
2023-01-13T23:00:25.846Z,37.50
2023-01-13T23:02:54.059Z,37.45
2023-01-13T23:05:22.149Z,36.45
2023-01-13T23:07:50.415Z,38.35
2023-01-13T23:10:18.674Z,38.00
2023-01-13T23:12:49.015Z,37.33
2023-01-13T23:15:19.849Z,40.95
2023-01-13T23:17:50.287Z,38.80
2023-01-13T23:20:19.393Z,35.85
2023-01-13T23:22:47.808Z,37.03
2023-01-13T23:25:16.030Z,37.08
2023-01-13T23:27:44.117Z,35.15
2023-01-13T23:30:13.256Z,36.35
2023-01-13T23:32:42.763Z,38.42
2023-01-13T23:35:11.294Z,36.25
2023-01-13T23:37:39.429Z,36.25
2023-01-13T23:40:09.844Z,31.80
2023-01-13T23:42:37.962Z,35.88
2023-01-13T23:45:06.973Z,34.13
2023-01-13T23:47:36.321Z,35.53
2023-01-13T23:50:06.395Z,41.00
2023-01-13T23:52:34.495Z,39.90
2023-01-13T23:55:02.693Z,40.33
2023-01-13T23:57:30.848Z,37.08
2023-01-13T23:59:59.044Z,36.22
